Time;durP1;ratioP1;P1;durP2;ratioP2;P2;SDS_P1;SDS_P2;PMS_P1;PMS_P2;Temp;Humidity;BMP_temperature;BMP_pressure;BME280_temperature;BME280_humidity;BME280_pressure;Samples;Min_cycle;Max_cycle;Signal;HPM_P1;HPM_P2
2023/01/29 00:00:50;;;;;;;11.07;10.07;;;4.00;49.90;;;;;;20975;6706;116809;-75
2023/01/29 00:03:27;;;;;;;9.73;8.93;;;3.90;50.00;;;;;;20926;6762;117329;-74
2023/01/29 00:06:05;;;;;;;12.70;11.80;;;3.60;50.40;;;;;;20675;6706;307032;-75
2023/01/29 00:08:39;;;;;;;12.97;12.07;;;3.60;50.10;;;;;;20771;6706;275885;-75
2023/01/29 00:11:17;;;;;;;13.40;12.40;;;3.90;49.60;;;;;;20740;6706;276514;-74
2023/01/29 00:13:52;;;;;;;13.27;12.17;;;4.10;48.90;;;;;;20758;6706;305926;-74
2023/01/29 00:16:28;;;;;;;11.07;10.13;;;4.30;48.60;;;;;;20849;6706;117288;-74
2023/01/29 00:19:02;;;;;;;10.30;9.50;;;4.10;48.90;;;;;;20953;6706;118134;-75
2023/01/29 00:21:40;;;;;;;9.97;9.00;;;3.80;49.50;;;;;;20958;6706;120235;-74
2023/01/29 00:24:15;;;;;;;13.27;12.27;;;3.50;50.20;;;;;;20743;6706;304732;-75
2023/01/29 00:26:52;;;;;;;13.30;12.20;;;3.90;49.60;;;;;;20604;6706;322279;-76
2023/01/29 00:29:30;;;;;;;13.05;12.10;;;3.90;49.60;;;;;;20732;6706;310107;-76
2023/01/29 00:32:01;;;;;;;12.73;11.75;;;4.20;49.00;;;;;;20652;6736;338754;-80
2023/01/29 00:34:38;;;;;;;11.50;10.47;;;4.40;48.40;;;;;;20879;6736;117211;-75
2023/01/29 00:37:23;;;;;;;12.97;12.07;;;4.10;48.50;;;;;;20580;6787;275984;-75
2023/01/29 00:39:58;;;;;;;;;;;;;;;;;;;;;
2023/01/29 00:45:21;;;;;;;12.90;11.90;;;4.10;48.60;;;;;;20490;6703;307656;-75
2023/01/29 00:47:55;;;;;;;11.27;10.27;;;4.10;48.70;;;;;;20930;6715;117280;-74
2023/01/29 00:50:33;;;;;;;12.55;11.50;;;4.00;48.90;;;;;;20593;6730;336821;-74
2023/01/29 00:53:11;;;;;;;12.87;11.87;;;4.00;48.90;;;;;;20656;6730;295000;-74
2023/01/29 00:55:43;;;;;;;10.27;9.47;;;4.20;48.30;;;;;;20827;6730;119232;-74
2023/01/29 00:58:27;;;;;;;12.90;11.93;;;4.00;48.40;;;;;;20676;6733;335051;-75
2023/01/29 01:01:00;;;;;;;11.40;10.30;;;4.00;48.30;;;;;;20860;6733;119747;-76
2023/01/29 01:03:41;;;;;;;10.07;9.17;;;3.90;48.50;;;;;;20891;6733;117335;-76
2023/01/29 01:06:12;;;;;;;13.10;12.10;;;3.60;49.10;;;;;;20551;6733;340563;-76
2023/01/29 01:11:43;;;;;;;12.83;11.93;;;3.90;48.70;;;;;;20753;6706;310141;-77
2023/01/29 01:14:18;;;;;;;10.87;9.97;;;4.20;48.30;;;;;;20887;6730;117152;-76
2023/01/29 01:16:54;;;;;;;12.43;11.52;;;4.00;48.30;;;;;;20481;6730;337149;-76
2023/01/29 01:19:31;;;;;;;13.00;12.00;;;4.00;48.20;;;;;;20646;6739;335416;-76
2023/01/29 01:22:06;;;;;;;11.50;10.60;;;4.20;47.90;;;;;;20903;6724;116857;-76
2023/01/29 01:24:42;;;;;;;10.80;9.90;;;4.00;48.00;;;;;;20898;6724;120530;-76
2023/01/29 01:27:18;;;;;;;12.83;11.73;;;3.70;48.70;;;;;;20681;6724;305230;-76
2023/01/29 01:29:53;;;;;;;9.60;8.90;;;3.70;48.70;;;;;;20866;6739;118501;-75
2023/01/29 01:32:30;;;;;;;9.93;9.00;;;3.50;49.50;;;;;;20909;6724;116606;-75
2023/01/29 01:35:06;;;;;;;11.97;11.13;;;3.40;49.40;;;;;;20641;6724;306484;-75
2023/01/29 01:37:43;;;;;;;10.27;9.47;;;3.60;49.70;;;;;;20852;6745;117352;-75
2023/01/29 01:40:20;;;;;;;12.63;11.73;;;3.60;49.70;;;;;;20691;6727;276133;-75
2023/01/29 01:42:56;;;;;;;12.50;11.57;;;3.70;49.50;;;;;;20624;6743;305862;-75
2023/01/29 01:45:36;;;;;;;11.23;10.33;;;3.90;48.70;;;;;;20780;6746;118131;-75
2023/01/29 01:48:20;;;;;;;10.03;9.20;;;3.90;48.70;;;;;;20914;6724;117535;-75
2023/01/29 01:51:00;;;;;;;10.73;9.73;;;3.70;49.30;;;;;;20907;6725;117400;-76
2023/01/29 01:53:38;;;;;;;9.23;8.53;;;3.40;49.70;;;;;;20890;6724;119999;-75
2023/01/29 01:56:17;;;;;;;10.17;9.27;;;3.20;50.10;;;;;;20836;6709;117127;-74
2023/01/29 01:58:57;;;;;;;9.70;8.90;;;3.00;50.50;;;;;;20925;6708;117195;-73
2023/01/29 02:01:33;;;;;;;12.77;11.77;;;2.90;50.80;;;;;;20691;6724;305414;-77
2023/01/29 02:10:12;;;;;;;12.93;11.93;;;3.40;50.50;;;;;;20735;6709;297818;-75
2023/01/29 02:12:48;;;;;;;10.70;9.80;;;3.70;49.90;;;;;;20944;6709;118098;-77
2023/01/29 02:15:24;;;;;;;13.23;12.23;;;3.70;49.20;;;;;;20665;6709;305365;-74
2023/01/29 02:17:58;;;;;;;13.18;12.18;;;4.00;48.50;;;;;;20730;6709;337063;-74
2023/01/29 02:20:36;;;;;;;10.50;9.70;;;4.00;48.50;;;;;;20927;6709;116885;-75
2023/01/29 02:23:32;;;;;;;12.98;11.95;;;3.90;48.60;;;;;;20726;6709;334640;-75
2023/01/29 02:26:20;;;;;;;12.50;11.50;;;3.90;48.60;;;;;;20505;6787;278960;-75
2023/01/29 02:29:21;;;;;;;12.68;11.77;;;4.20;48.20;;;;;;20748;6704;304784;-75
2023/01/29 02:31:39;;;;;;;10.10;9.30;;;4.40;47.60;;;;;;20818;6802;116417;-75
2023/01/29 02:37:40;;;;;;;10.60;9.60;;;4.10;48.00;;;;;;20923;6731;117881;-75
2023/01/29 02:40:19;;;;;;;11.73;10.83;;;3.90;48.30;;;;;;20617;6746;307140;-75
2023/01/29 02:43:01;;;;;;;9.70;9.00;;;3.90;48.30;;;;;;20873;6743;118694;-75
2023/01/29 02:45:46;;;;;;;10.67;9.80;;;3.80;48.50;;;;;;20706;6785;122726;-74
2023/01/29 02:48:55;;;;;;;9.07;8.37;;;3.60;49.10;;;;;;20798;6766;119903;-74
2023/01/29 02:51:37;;;;;;;9.57;8.80;;;3.30;49.50;;;;;;20875;6731;116941;-74
2023/01/29 02:54:36;;;;;;;9.40;8.37;;;3.00;49.90;;;;;;20899;6731;120725;-74
2023/01/29 02:57:22;;;;;;;9.63;8.83;;;2.90;50.30;;;;;;20843;6743;117338;-74
2023/01/29 03:00:15;;;;;;;9.13;8.43;;;2.80;50.80;;;;;;20904;6746;116728;-74
2023/01/29 03:02:48;;;;;;;11.73;10.83;;;2.70;50.90;;;;;;20692;6743;305635;-74
2023/01/29 03:05:28;;;;;;;9.67;8.90;;;2.90;50.40;;;;;;20814;6743;119475;-74
2023/01/29 03:08:03;;;;;;;10.50;9.60;;;3.00;50.20;;;;;;20843;6746;120627;-74
2023/01/29 03:10:39;;;;;;;11.77;10.90;;;2.90;50.90;;;;;;20695;6728;306399;-74
2023/01/29 03:13:17;;;;;;;10.20;9.30;;;3.10;50.20;;;;;;20873;6734;118574;-75
2023/01/29 03:16:00;;;;;;;9.20;8.50;;;3.10;49.90;;;;;;20790;6745;118371;-75
2023/01/29 03:18:34;;;;;;;11.50;10.70;;;3.00;50.20;;;;;;20637;6745;318575;-75
2023/01/29 03:21:49;;;;;;;11.50;10.60;;;3.20;50.30;;;;;;20644;6743;305645;-76
2023/01/29 03:32:34;;;;;;;12.33;11.40;;;4.30;46.10;;;;;;20681;6731;278143;-76
2023/01/29 03:35:08;;;;;;;10.13;9.33;;;4.50;45.80;;;;;;20820;6731;121075;-75
2023/01/29 03:37:44;;;;;;;9.87;8.97;;;4.20;46.20;;;;;;20972;6704;120490;-75
2023/01/29 03:40:19;;;;;;;12.10;11.20;;;3.80;46.90;;;;;;20741;6704;298423;-75
2023/01/29 03:43:04;;;;;;;12.10;11.10;;;3.80;47.60;;;;;;20744;6704;280576;-75
2023/01/29 03:46:10;;;;;;;11.37;10.57;;;4.00;47.70;;;;;;20519;6704;278005;-74
2023/01/29 03:48:58;;;;;;;11.50;10.70;;;4.20;47.60;;;;;;20662;6731;306591;-74
2023/01/29 03:52:03;;;;;;;10.10;9.30;;;4.20;47.80;;;;;;20883;6716;116826;-76
2023/01/29 03:54:46;;;;;;;9.63;8.90;;;3.70;48.40;;;;;;20888;6731;116783;-75
2023/01/29 03:57:28;;;;;;;11.95;11.05;;;3.70;48.40;;;;;;20689;6720;338309;-78
2023/01/29 04:00:21;;;;;;;9.40;8.70;;;3.80;48.70;;;;;;20929;6720;117304;-75
2023/01/29 04:03:19;;;;;;;9.23;8.47;;;3.40;49.00;;;;;;20780;6791;120497;-77
2023/01/29 04:06:04;;;;;;;11.20;10.50;;;3.40;49.00;;;;;;20587;6737;280012;-74
2023/01/29 04:08:37;;;;;;;9.57;8.87;;;3.50;49.10;;;;;;20956;6712;119120;-74
2023/01/29 04:11:17;;;;;;;11.83;10.93;;;3.50;49.10;;;;;;20704;6712;276831;-75
2023/01/29 04:13:49;;;;;;;11.70;10.90;;;3.90;49.00;;;;;;20777;6698;309591;-74
2023/01/29 04:16:24;;;;;;;11.35;10.55;;;3.90;48.30;;;;;;20590;6712;307697;-75
2023/01/29 04:19:00;;;;;;;11.70;10.85;;;4.10;47.60;;;;;;20740;6704;299288;-76
2023/01/29 04:21:40;;;;;;;9.60;8.80;;;4.30;47.10;;;;;;20937;6759;120324;-76
2023/01/29 04:24:11;;;;;;;9.80;9.10;;;4.10;47.80;;;;;;20937;6712;116704;-78
2023/01/29 04:27:00;;;;;;;8.17;7.57;;;3.70;47.60;;;;;;20682;6745;118791;-74
2023/01/29 04:29:42;;;;;;;10.10;9.50;;;3.40;48.20;;;;;;19847;6815;306848;-74
2023/01/29 04:32:24;;;;;;;10.60;9.90;;;3.50;47.70;;;;;;20728;6714;305193;-74
2023/01/29 04:35:06;;;;;;;12.20;11.30;;;3.90;47.50;;;;;;20747;6699;306678;-75
2023/01/29 04:37:45;;;;;;;10.20;9.40;;;4.10;46.60;;;;;;20981;6704;117236;-74
2023/01/29 04:40:21;;;;;;;10.37;9.57;;;4.00;46.80;;;;;;20964;6761;122770;-75
2023/01/29 04:43:09;;;;;;;9.67;8.97;;;3.70;47.50;;;;;;20173;6761;118690;-75
2023/01/29 04:46:17;;;;;;;8.60;7.90;;;3.20;48.50;;;;;;20857;6718;117053;-75
2023/01/29 04:49:04;;;;;;;8.57;7.90;;;3.20;48.60;;;;;;20852;6743;117630;-74
2023/01/29 04:51:53;;;;;;;8.70;8.00;;;3.00;49.00;;;;;;20778;6744;117060;-75
2023/01/29 04:54:38;;;;;;;9.00;8.30;;;2.70;50.00;;;;;;20573;6762;116525;-75
2023/01/29 04:57:22;;;;;;;9.13;8.43;;;2.70;49.80;;;;;;20902;6714;117872;-75
2023/01/29 05:00:11;;;;;;;9.83;9.03;;;2.60;50.00;;;;;;20948;6714;116672;-74
2023/01/29 05:02:44;;;;;;;12.02;11.23;;;2.60;50.30;;;;;;20722;6714;333984;-75
2023/01/29 05:05:19;;;;;;;10.17;9.37;;;2.90;49.90;;;;;;20882;6714;123350;-75
2023/01/29 05:07:55;;;;;;;8.87;8.27;;;3.00;49.60;;;;;;21009;6695;116616;-75
2023/01/29 05:10:31;;;;;;;8.00;7.47;;;2.90;49.80;;;;;;20919;6722;117180;-75
2023/01/29 05:13:08;;;;;;;11.53;10.70;;;2.80;49.70;;;;;;20715;6707;307217;-74
2023/01/29 05:16:02;;;;;;;11.53;10.73;;;3.10;49.40;;;;;;20697;6695;302509;-73
2023/01/29 05:18:37;;;;;;;10.60;9.90;;;3.50;48.40;;;;;;20659;6735;309706;-74
2023/01/29 05:21:14;;;;;;;8.47;7.97;;;3.80;47.00;;;;;;20903;6720;117761;-74
2023/01/29 05:24:05;;;;;;;9.60;9.00;;;3.70;47.00;;;;;;20702;6720;335283;-75
2023/01/29 05:29:42;;;;;;;9.33;8.77;;;3.60;46.20;;;;;;20745;6720;275222;-76
2023/01/29 05:32:17;;;;;;;7.50;7.00;;;3.70;45.60;;;;;;20871;6735;116772;-75
2023/01/29 05:34:51;;;;;;;11.53;10.67;;;3.60;46.00;;;;;;20669;6724;305985;-76
2023/01/29 05:37:27;;;;;;;9.47;8.57;;;3.60;46.00;;;;;;20891;6729;116966;-75
2023/01/29 05:40:07;;;;;;;12.17;11.10;;;3.50;46.20;;;;;;20681;6729;305451;-75
2023/01/29 05:42:39;;;;;;;9.80;9.10;;;3.60;46.60;;;;;;20889;6729;117349;-75
2023/01/29 05:45:14;;;;;;;9.70;8.90;;;3.50;46.70;;;;;;20797;6734;121148;-75
2023/01/29 05:47:53;;;;;;;10.53;9.83;;;3.30;47.20;;;;;;20748;6707;301260;-75
2023/01/29 05:50:27;;;;;;;10.52;9.82;;;3.40;47.00;;;;;;20790;6694;303081;-77
2023/01/29 05:53:06;;;;;;;10.40;9.50;;;3.60;46.20;;;;;;20906;6722;117954;-75
2023/01/29 05:55:45;;;;;;;9.70;8.90;;;3.60;46.20;;;;;;20924;6694;117199;-75
2023/01/29 05:58:22;;;;;;;9.17;8.37;;;3.30;46.90;;;;;;20908;6724;117799;-75
2023/01/29 06:01:03;;;;;;;11.60;10.77;;;3.10;47.60;;;;;;20685;6724;302716;-75
2023/01/29 06:03:33;;;;;;;9.67;8.87;;;3.20;47.80;;;;;;20910;6724;117073;-75
2023/01/29 06:06:09;;;;;;;11.13;10.40;;;3.30;47.90;;;;;;20620;6709;306026;-76
2023/01/29 06:08:45;;;;;;;11.00;10.30;;;3.40;48.10;;;;;;20729;6709;304489;-76
2023/01/29 06:11:20;;;;;;;9.80;9.13;;;3.70;46.70;;;;;;20707;6709;305365;-75
2023/01/29 06:13:56;;;;;;;8.33;7.73;;;4.00;46.20;;;;;;20908;6724;117831;-77
2023/01/29 06:16:36;;;;;;;7.57;7.07;;;3.90;46.30;;;;;;20820;6709;117065;-76
2023/01/29 06:19:07;;;;;;;9.40;8.80;;;3.60;46.90;;;;;;20726;6709;304900;-78
2023/01/29 06:21:44;;;;;;;9.95;9.35;;;3.60;46.50;;;;;;20693;6724;305338;-74
2023/01/29 06:24:20;;;;;;;9.37;8.47;;;3.80;45.70;;;;;;20959;6709;116734;-76
2023/01/29 06:26:57;;;;;;;10.40;9.70;;;3.80;45.90;;;;;;20517;6724;285603;-75
2023/01/29 06:29:42;;;;;;;;;;;;;;;;;;;;;
2023/01/29 06:32:07;;;;;;;9.10;8.30;;;4.00;45.80;;;;;;20921;6766;121260;-75
2023/01/29 06:34:43;;;;;;;10.10;9.50;;;3.90;46.10;;;;;;20744;6709;280475;-75
2023/01/29 06:37:18;;;;;;;14.37;13.40;;;3.90;45.80;;;;;;20434;6709;296178;-75
2023/01/29 06:39:54;;;;;;;10.20;9.60;;;4.10;44.90;;;;;;20737;6709;280792;-75
2023/01/29 06:42:30;;;;;;;9.70;9.10;;;4.30;44.00;;;;;;20723;6709;336208;-75
2023/01/29 06:45:06;;;;;;;8.73;8.13;;;4.40;44.10;;;;;;20903;6709;118205;-75
2023/01/29 06:47:43;;;;;;;19.70;18.07;;;3.80;45.80;;;;;;20965;6709;116693;-75
2023/01/29 06:50:25;;;;;;;10.37;9.57;;;3.80;45.20;;;;;;20897;6709;116879;-76
2023/01/29 06:52:54;;;;;;;8.53;7.63;;;3.50;45.70;;;;;;20775;6720;120092;-75
2023/01/29 06:55:33;;;;;;;7.60;7.10;;;3.30;46.40;;;;;;20641;6791;117028;-75
2023/01/29 06:58:09;;;;;;;11.57;10.67;;;3.10;46.80;;;;;;20741;6694;333135;-77
2023/01/29 07:00:43;;;;;;;14.17;13.07;;;3.20;46.10;;;;;;20889;6776;123281;-73
2023/01/29 07:03:20;;;;;;;15.30;13.80;;;3.20;45.90;;;;;;20900;6720;118209;-75
2023/01/29 07:06:03;;;;;;;12.57;11.53;;;3.00;46.30;;;;;;20830;6720;123537;-74
2023/01/29 07:08:31;;;;;;;11.27;10.57;;;2.90;46.80;;;;;;20791;6694;308506;-73
2023/01/29 07:11:07;;;;;;;9.67;8.87;;;3.00;46.70;;;;;;20892;6720;118740;-74
2023/01/29 07:13:49;;;;;;;14.37;13.27;;;3.10;46.90;;;;;;20927;6720;116476;-70
2023/01/29 07:16:25;;;;;;;10.63;9.93;;;3.00;47.30;;;;;;20564;6720;313548;-74
2023/01/29 07:18:53;;;;;;;10.70;9.97;;;3.20;47.20;;;;;;20740;6709;282340;-74
2023/01/29 07:21:28;;;;;;;11.97;11.17;;;3.50;46.20;;;;;;20712;6709;316098;-73
2023/01/29 07:24:04;;;;;;;11.87;10.77;;;3.80;45.50;;;;;;20876;6731;116927;-74
2023/01/29 07:26:47;;;;;;;10.37;9.67;;;3.80;45.70;;;;;;20550;6731;308005;-73
2023/01/29 07:29:22;;;;;;;8.17;7.57;;;3.90;45.80;;;;;;20939;6709;122914;-73
2023/01/29 07:32:01;;;;;;;9.30;8.70;;;3.80;45.40;;;;;;20705;6724;310159;-74
2023/01/29 07:34:37;;;;;;;8.73;8.13;;;3.80;45.40;;;;;;20891;6731;117852;-75
2023/01/29 07:37:12;;;;;;;8.40;7.70;;;3.80;45.70;;;;;;20874;6731;116716;-75
2023/01/29 07:39:51;;;;;;;7.73;7.07;;;3.50;46.20;;;;;;20908;6731;117923;-72
2023/01/29 07:42:34;;;;;;;;;;;;;;;;;;;;;
2023/01/29 07:45:00;;;;;;;12.00;11.10;;;3.20;47.20;;;;;;20634;6731;336567;-71
2023/01/29 07:47:35;;;;;;;10.80;9.90;;;3.30;46.40;;;;;;20891;6731;117313;-71
2023/01/29 07:50:14;;;;;;;9.33;8.73;;;3.40;46.50;;;;;;20667;6731;306950;-71
2023/01/29 07:52:50;;;;;;;8.80;8.20;;;3.50;46.40;;;;;;20623;6746;336239;-73
2023/01/29 07:55:26;;;;;;;7.17;6.63;;;3.80;45.60;;;;;;20782;6746;118551;-71
2023/01/29 07:58:05;;;;;;;7.47;6.90;;;3.60;46.40;;;;;;20890;6730;121406;-72
2023/01/29 08:00:37;;;;;;;7.07;6.57;;;3.60;46.40;;;;;;20828;6749;118395;-72
2023/01/29 08:03:13;;;;;;;9.73;9.13;;;3.40;46.80;;;;;;20655;6730;334942;-74
2023/01/29 08:05:50;;;;;;;6.57;6.17;;;3.50;45.90;;;;;;20801;6716;268996;-74
2023/01/29 08:08:27;;;;;;;6.43;6.03;;;3.60;45.70;;;;;;20924;6709;117591;-72
2023/01/29 08:11:01;;;;;;;7.53;6.93;;;3.50;46.30;;;;;;20872;6724;118771;-72
2023/01/29 08:13:39;;;;;;;6.30;5.80;;;3.30;46.80;;;;;;20958;6709;116670;-73
2023/01/29 08:16:12;;;;;;;7.03;6.53;;;3.40;46.00;;;;;;20546;6724;307212;-76
2023/01/29 08:18:49;;;;;;;6.30;6.00;;;3.40;46.00;;;;;;20700;6724;276982;-73
2023/01/29 08:21:26;;;;;;;20.65;18.80;;;4.10;44.40;;;;;;20708;6709;338599;-74
2023/01/29 08:24:01;;;;;;;9.57;8.93;;;4.10;44.30;;;;;;20735;6709;304805;-73
2023/01/29 08:26:43;;;;;;;5.20;4.90;;;4.30;43.70;;;;;;20766;6731;116867;-74
2023/01/29 08:29:16;;;;;;;5.70;5.30;;;3.90;45.00;;;;;;20922;6714;144239;-75
2023/01/29 08:31:49;;;;;;;14.50;12.27;;;3.70;45.50;;;;;;20841;6742;117739;-71
2023/01/29 08:34:31;;;;;;;11.55;10.68;;;3.70;45.40;;;;;;20679;6742;335224;-74
2023/01/29 08:37:03;;;;;;;8.20;7.70;;;4.10;44.10;;;;;;20390;6742;309141;-74
2023/01/29 08:39:43;;;;;;;10.57;9.67;;;4.10;44.10;;;;;;20895;6727;117898;-72
2023/01/29 08:42:14;;;;;;;7.10;6.53;;;4.10;44.50;;;;;;20854;6740;120762;-73
2023/01/29 08:44:49;;;;;;;6.20;5.80;;;3.90;45.10;;;;;;20824;6746;121731;-71
2023/01/29 08:47:28;;;;;;;4.30;4.00;;;3.60;46.20;;;;;;20855;6731;117874;-74
2023/01/29 08:50:01;;;;;;;25.08;23.05;;;3.60;46.10;;;;;;20677;6731;276751;-72
2023/01/29 08:52:36;;;;;;;11.20;10.40;;;3.70;45.30;;;;;;20915;6716;116911;-77
2023/01/29 08:55:12;;;;;;;6.93;6.53;;;3.80;45.60;;;;;;20631;6724;316877;-74
2023/01/29 08:57:48;;;;;;;20.97;19.47;;;4.30;44.40;;;;;;20742;6709;308807;-74
2023/01/29 09:00:25;;;;;;;7.73;7.23;;;4.30;44.40;;;;;;20905;6724;118284;-73
2023/01/29 09:03:02;;;;;;;15.70;14.43;;;4.30;44.60;;;;;;20928;6709;121777;-74
2023/01/29 09:05:36;;;;;;;5.90;5.60;;;4.10;45.10;;;;;;20873;6709;119225;-75
2023/01/29 09:08:11;;;;;;;13.80;12.70;;;4.10;45.00;;;;;;20705;6765;304860;-73
2023/01/29 09:10:49;;;;;;;12.70;11.50;;;4.10;44.50;;;;;;20666;6730;306264;-71
2023/01/29 09:13:24;;;;;;;17.20;15.53;;;4.40;43.80;;;;;;20877;6730;117727;-73
2023/01/29 09:16:03;;;;;;;12.85;11.75;;;4.50;43.60;;;;;;20600;6730;309998;-75
2023/01/29 09:18:39;;;;;;;5.90;5.60;;;4.40;43.50;;;;;;20734;6709;304592;-74
2023/01/29 09:21:19;;;;;;;5.03;4.83;;;4.70;43.10;;;;;;20612;6745;280016;-77
2023/01/29 09:23:57;;;;;;;5.50;5.20;;;4.90;42.50;;;;;;20595;6746;314893;-73
2023/01/29 09:26:31;;;;;;;5.53;5.23;;;5.10;41.80;;;;;;20500;6745;279510;-71
2023/01/29 09:29:09;;;;;;;5.07;4.77;;;5.40;41.60;;;;;;20722;6709;278424;-78
2023/01/29 09:31:44;;;;;;;5.90;5.57;;;5.40;41.60;;;;;;20683;6724;275571;-74
2023/01/29 09:34:22;;;;;;;5.15;4.95;;;5.50;40.90;;;;;;20743;6709;334530;-75
2023/01/29 09:36:57;;;;;;;4.60;4.30;;;5.40;42.40;;;;;;20724;6724;117769;-78
2023/01/29 09:39:33;;;;;;;4.70;4.50;;;5.40;41.70;;;;;;20656;6780;303659;-76
2023/01/29 09:42:09;;;;;;;4.23;4.00;;;5.30;41.50;;;;;;20957;6709;117664;-76
2023/01/29 09:45:00;;;;;;;4.40;4.20;;;5.20;41.90;;;;;;20708;6710;305513;-76
2023/01/29 09:47:36;;;;;;;6.00;5.60;;;5.20;42.10;;;;;;20090;6787;119174;-74
2023/01/29 09:50:18;;;;;;;6.83;6.43;;;5.00;42.60;;;;;;20885;6731;116643;-74
2023/01/29 09:53:04;;;;;;;4.60;4.40;;;4.70;43.30;;;;;;20866;6731;116792;-74
2023/01/29 09:55:41;;;;;;;4.40;4.17;;;4.50;44.10;;;;;;20818;6731;117199;-76
2023/01/29 09:58:19;;;;;;;4.70;4.40;;;4.30;44.60;;;;;;20940;6709;116714;-74
2023/01/29 10:01:12;;;;;;;3.97;3.77;;;4.20;45.10;;;;;;20849;6765;117871;-74
2023/01/29 10:03:53;;;;;;;3.67;3.47;;;4.10;45.60;;;;;;20943;6709;116601;-73
2023/01/29 10:06:52;;;;;;;3.47;3.27;;;4.00;45.80;;;;;;20684;6765;123987;-73
2023/01/29 10:10:05;;;;;;;3.50;3.23;;;3.90;46.10;;;;;;20826;6752;117265;-74
2023/01/29 10:12:39;;;;;;;3.83;3.63;;;3.90;46.30;;;;;;20897;6720;116715;-75
2023/01/29 10:15:38;;;;;;;5.00;4.70;;;3.80;46.50;;;;;;20565;6742;299965;-75
2023/01/29 10:18:33;;;;;;;4.23;4.03;;;4.00;45.00;;;;;;20933;6720;116816;-74
2023/01/29 10:21:08;;;;;;;4.77;4.53;;;4.20;45.00;;;;;;20674;6719;305893;-75
2023/01/29 10:23:47;;;;;;;5.00;4.70;;;4.40;43.50;;;;;;20518;6776;328951;-74
2023/01/29 10:26:23;;;;;;;4.60;4.40;;;4.80;43.10;;;;;;20611;6720;306500;-76
2023/01/29 10:28:59;;;;;;;5.23;4.87;;;5.10;42.50;;;;;;21002;6694;116862;-73
2023/01/29 10:31:37;;;;;;;4.80;4.50;;;5.20;41.70;;;;;;20779;6694;305254;-78
2023/01/29 10:34:37;;;;;;;4.65;4.35;;;5.20;41.70;;;;;;20461;6742;323912;-75
2023/01/29 10:37:20;;;;;;;4.50;4.30;;;5.50;41.60;;;;;;20573;6754;310298;-75
2023/01/29 10:39:54;;;;;;;4.80;4.50;;;5.80;43.00;;;;;;20566;6749;310249;-74
2023/01/29 10:42:37;;;;;;;4.70;4.40;;;6.10;44.00;;;;;;20868;6737;117826;-74
2023/01/29 10:45:19;;;;;;;4.17;3.97;;;6.10;44.20;;;;;;20853;6772;121405;-75
2023/01/29 10:48:04;;;;;;;3.90;3.70;;;5.90;44.80;;;;;;20906;6731;117948;-76
2023/01/29 10:50:56;;;;;;;5.00;4.70;;;5.70;45.30;;;;;;20648;6746;306870;-74
2023/01/29 10:54:04;;;;;;;5.28;4.97;;;5.90;44.50;;;;;;20676;6785;304702;-74
2023/01/29 10:56:46;;;;;;;4.80;4.50;;;6.30;42.90;;;;;;19270;7185;121577;-75
2023/01/29 11:00:00;;;;;;;5.30;5.00;;;6.30;43.40;;;;;;19616;7087;292731;-73
2023/01/29 11:02:42;;;;;;;5.13;4.83;;;6.40;42.90;;;;;;19260;7142;289297;-76
2023/01/29 11:05:24;;;;;;;5.00;4.80;;;6.80;43.00;;;;;;19637;7060;320169;-80
2023/01/29 11:08:01;;;;;;;4.60;4.33;;;7.00;42.00;;;;;;20391;6781;115795;-77
2023/01/29 11:10:37;;;;;;;4.77;4.37;;;6.90;42.60;;;;;;20938;6725;122528;-74
2023/01/29 11:13:13;;;;;;;5.50;5.20;;;6.60;42.90;;;;;;20732;6709;310819;-73
2023/01/29 11:15:49;;;;;;;4.40;4.20;;;6.60;42.50;;;;;;20894;6709;117539;-72
2023/01/29 11:18:24;;;;;;;5.20;4.90;;;6.50;43.20;;;;;;20768;6751;282021;-74
2023/01/29 11:21:00;;;;;;;7.70;7.20;;;6.60;42.90;;;;;;20699;6720;334514;-77
2023/01/29 11:23:36;;;;;;;4.93;4.63;;;6.90;41.80;;;;;;20842;6714;118472;-74
2023/01/29 11:26:15;;;;;;;4.67;4.37;;;6.80;42.40;;;;;;20778;6742;122202;-75
2023/01/29 11:28:53;;;;;;;5.50;5.20;;;6.50;43.30;;;;;;20740;6720;305582;-77
2023/01/29 11:31:38;;;;;;;11.77;10.75;;;6.70;43.00;;;;;;20748;6709;305867;-77
2023/01/29 11:34:19;;;;;;;5.90;5.60;;;7.00;42.10;;;;;;20775;6706;334877;-77
2023/01/29 11:36:55;;;;;;;9.07;8.37;;;7.30;41.40;;;;;;20827;6706;117095;-76
2023/01/29 11:39:31;;;;;;;17.93;14.83;;;7.30;42.20;;;;;;20971;6706;118128;-75
2023/01/29 11:42:10;;;;;;;9.43;8.75;;;7.10;42.70;;;;;;20776;6707;333662;-77
2023/01/29 11:44:43;;;;;;;10.75;9.95;;;7.10;41.50;;;;;;20766;6707;281978;-75
2023/01/29 11:47:24;;;;;;;8.13;7.62;;;7.70;40.40;;;;;;20659;6778;335679;-76
2023/01/29 11:50:00;;;;;;;5.27;4.97;;;7.70;40.40;;;;;;20941;6711;116365;-74
2023/01/29 11:52:39;;;;;;;5.50;5.20;;;7.50;41.00;;;;;;20939;6722;117915;-74
2023/01/29 11:55:23;;;;;;;5.30;5.00;;;7.20;41.80;;;;;;20875;6713;116536;-74
2023/01/29 11:58:11;;;;;;;5.10;4.80;;;7.00;42.50;;;;;;21006;6698;117693;-74
2023/01/29 12:00:52;;;;;;;5.28;4.97;;;6.70;43.30;;;;;;20745;6699;276020;-74
2023/01/29 12:03:42;;;;;;;5.22;5.00;;;6.90;42.10;;;;;;20734;6710;276055;-74
2023/01/29 12:06:25;;;;;;;4.47;4.17;;;7.30;42.20;;;;;;20822;6725;117276;-71
2023/01/29 12:09:01;;;;;;;4.40;4.17;;;7.30;42.20;;;;;;20910;6760;120972;-73
2023/01/29 12:11:36;;;;;;;4.17;3.97;;;7.00;42.70;;;;;;21010;6699;117052;-74
2023/01/29 12:14:32;;;;;;;5.30;5.00;;;6.90;40.80;;;;;;20785;6699;275592;-73
2023/01/29 12:17:15;;;;;;;5.20;4.90;;;7.20;41.70;;;;;;20554;6768;282939;-74
2023/01/29 12:19:50;;;;;;;4.85;4.65;;;7.20;41.00;;;;;;20825;6687;335151;-74
2023/01/29 12:22:32;;;;;;;4.97;4.68;;;7.50;40.70;;;;;;20751;6758;304892;-77
2023/01/29 12:25:35;;;;;;;4.40;4.10;;;7.70;40.10;;;;;;20782;6746;122981;-75
2023/01/29 12:28:22;;;;;;;3.60;3.40;;;7.60;41.00;;;;;;20860;6724;67502;-76
2023/01/29 12:31:07;;;;;;;3.80;3.60;;;7.20;41.90;;;;;;20771;6765;118915;-76
2023/01/29 12:33:57;;;;;;;4.50;4.30;;;6.90;42.70;;;;;;20788;6751;304531;-75
2023/01/29 12:36:51;;;;;;;4.67;4.37;;;7.00;42.00;;;;;;20579;6781;280465;-72
2023/01/29 12:39:26;;;;;;;4.53;4.33;;;7.30;40.60;;;;;;20677;6724;276760;-79
2023/01/29 12:42:06;;;;;;;4.60;4.30;;;7.80;40.10;;;;;;20697;6761;279164;-75
2023/01/29 12:44:41;;;;;;;4.50;4.30;;;7.80;40.00;;;;;;20571;6763;305723;-74
2023/01/29 12:47:32;;;;;;;4.40;4.20;;;7.90;40.00;;;;;;20719;6721;310716;-74
2023/01/29 12:50:23;;;;;;;5.00;4.70;;;8.00;39.80;;;;;;20754;6721;277521;-76
2023/01/29 12:52:58;;;;;;;4.80;4.50;;;8.10;38.90;;;;;;20951;6721;150230;-74
2023/01/29 12:55:40;;;;;;;5.67;5.17;;;7.80;39.80;;;;;;20913;6721;117245;-76
2023/01/29 12:58:28;;;;;;;6.07;5.68;;;7.40;41.00;;;;;;20741;6709;306857;-77
2023/01/29 13:01:02;;;;;;;5.00;4.57;;;7.40;40.30;;;;;;20949;6749;118309;-75
2023/01/29 13:03:52;;;;;;;5.50;5.00;;;7.30;41.20;;;;;;20763;6694;308593;-77
2023/01/29 13:06:27;;;;;;;4.93;4.63;;;7.30;40.10;;;;;;20869;6694;122626;-78
2023/01/29 13:09:06;;;;;;;4.70;4.40;;;7.20;41.10;;;;;;20928;6709;116829;-79
2023/01/29 13:11:42;;;;;;;4.67;4.37;;;6.90;41.80;;;;;;20917;6724;117034;-80
2023/01/29 13:14:27;;;;;;;4.57;4.27;;;6.70;42.60;;;;;;20914;6723;116653;-78
2023/01/29 13:17:27;;;;;;;5.07;4.78;;;6.60;43.20;;;;;;20510;6724;282622;-75
2023/01/29 13:20:10;;;;;;;4.90;4.50;;;6.80;42.70;;;;;;20465;6751;116550;-76
2023/01/29 13:22:47;;;;;;;4.00;3.80;;;6.80;42.70;;;;;;20838;6751;117025;-78
2023/01/29 13:25:23;;;;;;;4.60;4.30;;;6.40;43.40;;;;;;20934;6694;117879;-77
2023/01/29 13:27:59;;;;;;;5.28;4.97;;;6.40;43.40;;;;;;20748;6709;335264;-75
2023/01/29 13:30:35;;;;;;;5.07;4.77;;;6.60;42.40;;;;;;20981;6709;117160;-76
2023/01/29 13:33:20;;;;;;;4.97;4.57;;;6.60;42.80;;;;;;20816;6739;122293;-75
2023/01/29 13:35:56;;;;;;;4.33;4.00;;;6.20;43.60;;;;;;20850;6780;116988;-77
2023/01/29 13:38:34;;;;;;;5.20;4.90;;;6.40;42.90;;;;;;20715;6723;307485;-76
2023/01/29 13:41:08;;;;;;;4.97;4.67;;;6.30;42.80;;;;;;20690;6724;306496;-76
2023/01/29 13:43:55;;;;;;;5.23;4.93;;;6.70;42.00;;;;;;20756;6709;277078;-80
2023/01/29 13:46:32;;;;;;;4.93;4.63;;;7.00;41.30;;;;;;20789;6724;117154;-75
2023/01/29 13:49:08;;;;;;;4.60;4.30;;;6.90;41.90;;;;;;20911;6724;121405;-76
2023/01/29 13:51:44;;;;;;;5.18;4.90;;;6.60;42.60;;;;;;20656;6795;335721;-76
2023/01/29 13:54:22;;;;;;;4.40;4.20;;;6.60;41.80;;;;;;20923;6727;116651;-77
2023/01/29 13:57:02;;;;;;;4.40;4.20;;;6.60;42.50;;;;;;20802;6715;117348;-77
2023/01/29 13:59:55;;;;;;;4.50;4.20;;;6.40;43.10;;;;;;20940;6715;116581;-77
2023/01/29 14:02:29;;;;;;;5.47;5.17;;;6.20;43.70;;;;;;20758;6709;279703;-72
2023/01/29 14:05:32;;;;;;;5.80;5.50;;;6.40;42.70;;;;;;20708;6709;307928;-72
2023/01/29 14:08:16;;;;;;;4.90;4.60;;;6.60;42.60;;;;;;20940;6722;116623;-74
2023/01/29 14:10:53;;;;;;;4.93;4.53;;;6.60;42.60;;;;;;20791;6765;121211;-76
2023/01/29 14:13:27;;;;;;;5.10;4.77;;;6.40;43.30;;;;;;20907;6764;123171;-73